sensor_id;sensor_type;location;lat;lon;timestamp;P1;durP1;ratioP1;P2;durP2;ratioP2
24635;SDS011;12772;49.794;10.024;2023-07-22T00:00:03;2.53;;;2.05;;
24635;SDS011;12772;49.794;10.024;2023-07-22T00:04:09;2.83;;;2.60;;
24635;SDS011;12772;49.794;10.024;2023-07-22T00:08:11;2.83;;;2.63;;
24635;SDS011;12772;49.794;10.024;2023-07-22T00:12:13;3.22;;;2.47;;
24635;SDS011;12772;49.794;10.024;2023-07-22T00:16:15;2.50;;;2.30;;
24635;SDS011;12772;49.794;10.024;2023-07-22T00:20:18;2.45;;;2.25;;
24635;SDS011;12772;49.794;10.024;2023-07-22T00:24:20;3.50;;;2.63;;
24635;SDS011;12772;49.794;10.024;2023-07-22T00:28:23;3.08;;;2.45;;
24635;SDS011;12772;49.794;10.024;2023-07-22T00:32:25;3.40;;;2.70;;
24635;SDS011;12772;49.794;10.024;2023-07-22T00:36:27;3.17;;;2.33;;
24635;SDS011;12772;49.794;10.024;2023-07-22T00:40:29;2.55;;;2.25;;
24635;SDS011;12772;49.794;10.024;2023-07-22T00:44:32;2.60;;;2.40;;
24635;SDS011;12772;49.794;10.024;2023-07-22T00:48:34;2.70;;;2.50;;
24635;SDS011;12772;49.794;10.024;2023-07-22T00:52:39;2.50;;;2.30;;
24635;SDS011;12772;49.794;10.024;2023-07-22T00:56:41;2.45;;;1.90;;
24635;SDS011;12772;49.794;10.024;2023-07-22T01:00:45;2.10;;;2.00;;
24635;SDS011;12772;49.794;10.024;2023-07-22T01:04:47;2.45;;;2.25;;
24635;SDS011;12772;49.794;10.024;2023-07-22T01:08:52;2.28;;;2.08;;
24635;SDS011;12772;49.794;10.024;2023-07-22T01:12:55;2.10;;;2.00;;
24635;SDS011;12772;49.794;10.024;2023-07-22T01:16:57;3.08;;;2.03;;
24635;SDS011;12772;49.794;10.024;2023-07-22T01:21:00;3.15;;;2.30;;
24635;SDS011;12772;49.794;10.024;2023-07-22T01:25:02;2.13;;;1.92;;
24635;SDS011;12772;49.794;10.024;2023-07-22T01:29:05;1.90;;;1.80;;
24635;SDS011;12772;49.794;10.024;2023-07-22T01:33:07;2.88;;;2.42;;
24635;SDS011;12772;49.794;10.024;2023-07-22T01:37:09;2.50;;;2.30;;
24635;SDS011;12772;49.794;10.024;2023-07-22T01:41:11;2.55;;;2.35;;
24635;SDS011;12772;49.794;10.024;2023-07-22T01:45:13;3.58;;;2.25;;
24635;SDS011;12772;49.794;10.024;2023-07-22T01:49:15;2.72;;;2.13;;
24635;SDS011;12772;49.794;10.024;2023-07-22T01:53:17;2.08;;;1.92;;
24635;SDS011;12772;49.794;10.024;2023-07-22T01:57:19;2.30;;;2.20;;
24635;SDS011;12772;49.794;10.024;2023-07-22T02:01:21;2.60;;;2.40;;
24635;SDS011;12772;49.794;10.024;2023-07-22T02:05:23;2.40;;;2.08;;
24635;SDS011;12772;49.794;10.024;2023-07-22T02:09:25;3.92;;;2.60;;
24635;SDS011;12772;49.794;10.024;2023-07-22T02:13:27;2.40;;;2.17;;
24635;SDS011;12772;49.794;10.024;2023-07-22T02:17:29;2.22;;;2.03;;
24635;SDS011;12772;49.794;10.024;2023-07-22T02:21:32;2.30;;;2.20;;
24635;SDS011;12772;49.794;10.024;2023-07-22T02:25:34;2.72;;;2.42;;
24635;SDS011;12772;49.794;10.024;2023-07-22T02:29:36;4.25;;;2.28;;
24635;SDS011;12772;49.794;10.024;2023-07-22T02:33:38;2.20;;;2.10;;
24635;SDS011;12772;49.794;10.024;2023-07-22T02:37:41;1.80;;;1.70;;
24635;SDS011;12772;49.794;10.024;2023-07-22T02:41:43;3.75;;;2.42;;
24635;SDS011;12772;49.794;10.024;2023-07-22T02:45:45;2.13;;;1.90;;
24635;SDS011;12772;49.794;10.024;2023-07-22T02:49:48;2.90;;;2.10;;
24635;SDS011;12772;49.794;10.024;2023-07-22T02:53:50;2.05;;;1.90;;
24635;SDS011;12772;49.794;10.024;2023-07-22T02:57:52;2.13;;;1.92;;
24635;SDS011;12772;49.794;10.024;2023-07-22T03:01:54;2.75;;;2.55;;
24635;SDS011;12772;49.794;10.024;2023-07-22T03:05:57;2.25;;;1.80;;
24635;SDS011;12772;49.794;10.024;2023-07-22T03:10:01;2.25;;;2.08;;
24635;SDS011;12772;49.794;10.024;2023-07-22T03:14:03;2.58;;;2.38;;
24635;SDS011;12772;49.794;10.024;2023-07-22T03:18:05;3.13;;;2.13;;
24635;SDS011;12772;49.794;10.024;2023-07-22T03:22:07;2.80;;;2.28;;
24635;SDS011;12772;49.794;10.024;2023-07-22T03:26:10;3.38;;;2.10;;
24635;SDS011;12772;49.794;10.024;2023-07-22T03:30:16;2.95;;;2.03;;
24635;SDS011;12772;49.794;10.024;2023-07-22T03:34:19;2.28;;;2.17;;
24635;SDS011;12772;49.794;10.024;2023-07-22T03:38:21;2.30;;;2.10;;
24635;SDS011;12772;49.794;10.024;2023-07-22T03:42:23;2.13;;;2.03;;
24635;SDS011;12772;49.794;10.024;2023-07-22T03:46:25;2.28;;;2.08;;
24635;SDS011;12772;49.794;10.024;2023-07-22T03:50:27;2.25;;;2.15;;
24635;SDS011;12772;49.794;10.024;2023-07-22T03:54:29;3.58;;;2.30;;
24635;SDS011;12772;49.794;10.024;2023-07-22T03:58:31;2.22;;;2.03;;
24635;SDS011;12772;49.794;10.024;2023-07-22T04:02:33;2.35;;;2.15;;
24635;SDS011;12772;49.794;10.024;2023-07-22T04:06:36;2.33;;;2.13;;
24635;SDS011;12772;49.794;10.024;2023-07-22T04:10:38;2.38;;;2.17;;
24635;SDS011;12772;49.794;10.024;2023-07-22T04:14:40;2.60;;;2.40;;
24635;SDS011;12772;49.794;10.024;2023-07-22T04:18:42;2.10;;;2.00;;
24635;SDS011;12772;49.794;10.024;2023-07-22T04:22:44;2.50;;;2.30;;
24635;SDS011;12772;49.794;10.024;2023-07-22T04:26:46;2.50;;;2.30;;
24635;SDS011;12772;49.794;10.024;2023-07-22T04:30:54;2.38;;;2.22;;
24635;SDS011;12772;49.794;10.024;2023-07-22T04:34:58;2.80;;;2.60;;
24635;SDS011;12772;49.794;10.024;2023-07-22T04:39:00;3.00;;;2.35;;
24635;SDS011;12772;49.794;10.024;2023-07-22T04:43:03;2.15;;;2.05;;
24635;SDS011;12772;49.794;10.024;2023-07-22T04:47:05;2.03;;;1.92;;
24635;SDS011;12772;49.794;10.024;2023-07-22T04:51:07;2.65;;;2.45;;
24635;SDS011;12772;49.794;10.024;2023-07-22T04:55:09;2.95;;;2.30;;
24635;SDS011;12772;49.794;10.024;2023-07-22T04:59:11;2.80;;;2.58;;
24635;SDS011;12772;49.794;10.024;2023-07-22T05:03:15;2.40;;;2.20;;
24635;SDS011;12772;49.794;10.024;2023-07-22T05:07:18;2.45;;;2.25;;
24635;SDS011;12772;49.794;10.024;2023-07-22T05:11:21;3.35;;;2.80;;
24635;SDS011;12772;49.794;10.024;2023-07-22T05:15:24;2.88;;;2.63;;
24635;SDS011;12772;49.794;10.024;2023-07-22T05:19:26;2.90;;;2.70;;
24635;SDS011;12772;49.794;10.024;2023-07-22T05:23:28;2.65;;;2.45;;
24635;SDS011;12772;49.794;10.024;2023-07-22T05:27:30;2.80;;;2.60;;
24635;SDS011;12772;49.794;10.024;2023-07-22T05:31:32;3.08;;;2.72;;
24635;SDS011;12772;49.794;10.024;2023-07-22T05:35:34;3.53;;;2.80;;
24635;SDS011;12772;49.794;10.024;2023-07-22T05:39:36;3.10;;;2.90;;
24635;SDS011;12772;49.794;10.024;2023-07-22T05:43:38;2.72;;;2.53;;
24635;SDS011;12772;49.794;10.024;2023-07-22T05:47:40;3.92;;;2.85;;
24635;SDS011;12772;49.794;10.024;2023-07-22T05:51:42;3.83;;;3.05;;
24635;SDS011;12772;49.794;10.024;2023-07-22T05:55:44;3.13;;;2.83;;
24635;SDS011;12772;49.794;10.024;2023-07-22T05:59:46;4.00;;;2.72;;
24635;SDS011;12772;49.794;10.024;2023-07-22T06:03:48;3.20;;;2.90;;
24635;SDS011;12772;49.794;10.024;2023-07-22T06:07:50;2.90;;;2.70;;
24635;SDS011;12772;49.794;10.024;2023-07-22T06:11:52;3.20;;;2.97;;
24635;SDS011;12772;49.794;10.024;2023-07-22T06:15:54;3.70;;;3.40;;
24635;SDS011;12772;49.794;10.024;2023-07-22T06:19:56;3.67;;;2.90;;
24635;SDS011;12772;49.794;10.024;2023-07-22T06:23:58;4.00;;;3.10;;
24635;SDS011;12772;49.794;10.024;2023-07-22T06:28:01;3.67;;;3.38;;
24635;SDS011;12772;49.794;10.024;2023-07-22T06:32:03;2.97;;;2.70;;
24635;SDS011;12772;49.794;10.024;2023-07-22T06:36:05;2.97;;;2.78;;
24635;SDS011;12772;49.794;10.024;2023-07-22T06:40:07;3.00;;;2.80;;
24635;SDS011;12772;49.794;10.024;2023-07-22T06:44:09;3.00;;;2.72;;
24635;SDS011;12772;49.794;10.024;2023-07-22T06:48:11;3.83;;;3.53;;
24635;SDS011;12772;49.794;10.024;2023-07-22T06:52:13;3.30;;;3.00;;
24635;SDS011;12772;49.794;10.024;2023-07-22T06:56:15;3.67;;;3.10;;
24635;SDS011;12772;49.794;10.024;2023-07-22T07:00:17;3.67;;;3.38;;
24635;SDS011;12772;49.794;10.024;2023-07-22T07:04:19;3.67;;;3.25;;
24635;SDS011;12772;49.794;10.024;2023-07-22T07:08:21;3.30;;;3.10;;
24635;SDS011;12772;49.794;10.024;2023-07-22T07:12:24;3.70;;;3.40;;
24635;SDS011;12772;49.794;10.024;2023-07-22T07:16:27;4.93;;;3.25;;
24635;SDS011;12772;49.794;10.024;2023-07-22T07:20:31;3.42;;;3.08;;
24635;SDS011;12772;49.794;10.024;2023-07-22T07:24:33;4.25;;;3.58;;
24635;SDS011;12772;49.794;10.024;2023-07-22T07:28:35;3.38;;;3.15;;
24635;SDS011;12772;49.794;10.024;2023-07-22T07:32:38;3.80;;;3.50;;
24635;SDS011;12772;49.794;10.024;2023-07-22T07:36:40;3.67;;;3.38;;
24635;SDS011;12772;49.794;10.024;2023-07-22T07:40:42;4.25;;;3.13;;
24635;SDS011;12772;49.794;10.024;2023-07-22T07:44:44;3.40;;;3.10;;
24635;SDS011;12772;49.794;10.024;2023-07-22T07:48:53;3.15;;;2.88;;
24635;SDS011;12772;49.794;10.024;2023-07-22T07:53:01;3.45;;;3.25;;
24635;SDS011;12772;49.794;10.024;2023-07-22T07:57:03;3.67;;;3.03;;
24635;SDS011;12772;49.794;10.024;2023-07-22T08:01:05;2.67;;;2.47;;
24635;SDS011;12772;49.794;10.024;2023-07-22T08:05:08;9.13;;;2.60;;
24635;SDS011;12772;49.794;10.024;2023-07-22T08:09:12;3.30;;;2.78;;
24635;SDS011;12772;49.794;10.024;2023-07-22T08:13:19;3.05;;;2.60;;
24635;SDS011;12772;49.794;10.024;2023-07-22T08:17:22;3.72;;;2.60;;
24635;SDS011;12772;49.794;10.024;2023-07-22T08:21:24;2.95;;;2.70;;
24635;SDS011;12772;49.794;10.024;2023-07-22T08:25:26;5.97;;;2.92;;
24635;SDS011;12772;49.794;10.024;2023-07-22T08:29:28;2.78;;;2.55;;
24635;SDS011;12772;49.794;10.024;2023-07-22T08:33:30;2.63;;;2.42;;
24635;SDS011;12772;49.794;10.024;2023-07-22T08:37:33;2.67;;;2.47;;
24635;SDS011;12772;49.794;10.024;2023-07-22T08:41:35;2.65;;;2.35;;
24635;SDS011;12772;49.794;10.024;2023-07-22T08:45:38;3.95;;;2.90;;
24635;SDS011;12772;49.794;10.024;2023-07-22T08:49:42;4.00;;;2.67;;
24635;SDS011;12772;49.794;10.024;2023-07-22T08:53:51;2.67;;;2.45;;
24635;SDS011;12772;49.794;10.024;2023-07-22T08:57:57;2.88;;;2.67;;
24635;SDS011;12772;49.794;10.024;2023-07-22T09:02:00;2.65;;;2.45;;
24635;SDS011;12772;49.794;10.024;2023-07-22T09:06:04;2.97;;;2.30;;
24635;SDS011;12772;49.794;10.024;2023-07-22T09:10:06;2.88;;;2.30;;
24635;SDS011;12772;49.794;10.024;2023-07-22T09:14:10;2.88;;;2.58;;
24635;SDS011;12772;49.794;10.024;2023-07-22T09:18:12;2.50;;;2.30;;
24635;SDS011;12772;49.794;10.024;2023-07-22T09:22:15;2.90;;;2.70;;
24635;SDS011;12772;49.794;10.024;2023-07-22T09:26:17;2.55;;;2.35;;
24635;SDS011;12772;49.794;10.024;2023-07-22T09:30:26;3.20;;;2.90;;
24635;SDS011;12772;49.794;10.024;2023-07-22T09:34:30;2.50;;;2.25;;
24635;SDS011;12772;49.794;10.024;2023-07-22T09:38:32;3.80;;;2.35;;
24635;SDS011;12772;49.794;10.024;2023-07-22T09:42:34;3.80;;;2.72;;
24635;SDS011;12772;49.794;10.024;2023-07-22T09:46:36;3.13;;;2.33;;
24635;SDS011;12772;49.794;10.024;2023-07-22T09:50:38;2.97;;;2.78;;
24635;SDS011;12772;49.794;10.024;2023-07-22T09:54:47;2.60;;;2.40;;
24635;SDS011;12772;49.794;10.024;2023-07-22T09:58:50;2.15;;;2.05;;
24635;SDS011;12772;49.794;10.024;2023-07-22T10:02:53;2.95;;;2.47;;
24635;SDS011;12772;49.794;10.024;2023-07-22T10:06:58;4.30;;;2.63;;
24635;SDS011;12772;49.794;10.024;2023-07-22T10:11:01;3.17;;;2.38;;
24635;SDS011;12772;49.794;10.024;2023-07-22T10:15:07;2.58;;;2.30;;
24635;SDS011;12772;49.794;10.024;2023-07-22T10:19:10;2.42;;;2.20;;
24635;SDS011;12772;49.794;10.024;2023-07-22T10:23:13;2.33;;;2.10;;
24635;SDS011;12772;49.794;10.024;2023-07-22T10:27:16;2.38;;;2.17;;
24635;SDS011;12772;49.794;10.024;2023-07-22T10:31:19;4.07;;;2.42;;
24635;SDS011;12772;49.794;10.024;2023-07-22T10:35:34;2.92;;;2.35;;
24635;SDS011;12772;49.794;10.024;2023-07-22T10:39:41;3.13;;;2.40;;
24635;SDS011;12772;49.794;10.024;2023-07-22T10:43:56;2.67;;;2.35;;
24635;SDS011;12772;49.794;10.024;2023-07-22T10:48:05;2.40;;;2.20;;
24635;SDS011;12772;49.794;10.024;2023-07-22T10:52:10;5.45;;;2.25;;
24635;SDS011;12772;49.794;10.024;2023-07-22T10:56:20;2.55;;;2.35;;
24635;SDS011;12772;49.794;10.024;2023-07-22T11:00:25;2.65;;;2.45;;
24635;SDS011;12772;49.794;10.024;2023-07-22T11:04:31;3.45;;;2.17;;
24635;SDS011;12772;49.794;10.024;2023-07-22T11:08:39;2.35;;;2.22;;
24635;SDS011;12772;49.794;10.024;2023-07-22T11:12:45;3.45;;;2.88;;
24635;SDS011;12772;49.794;10.024;2023-07-22T11:16:47;4.13;;;2.38;;
24635;SDS011;12772;49.794;10.024;2023-07-22T11:20:52;2.30;;;2.15;;
24635;SDS011;12772;49.794;10.024;2023-07-22T11:24:54;4.60;;;2.97;;
24635;SDS011;12772;49.794;10.024;2023-07-22T11:28:59;5.25;;;2.55;;
24635;SDS011;12772;49.794;10.024;2023-07-22T11:33:02;3.08;;;2.70;;
24635;SDS011;12772;49.794;10.024;2023-07-22T11:37:05;4.18;;;2.63;;
24635;SDS011;12772;49.794;10.024;2023-07-22T11:41:07;4.78;;;3.03;;
24635;SDS011;12772;49.794;10.024;2023-07-22T11:45:11;3.05;;;2.70;;
24635;SDS011;12772;49.794;10.024;2023-07-22T11:49:13;2.95;;;2.33;;
24635;SDS011;12772;49.794;10.024;2023-07-22T11:53:34;2.30;;;2.10;;
24635;SDS011;12772;49.794;10.024;2023-07-22T11:57:36;3.60;;;2.35;;
24635;SDS011;12772;49.794;10.024;2023-07-22T12:01:45;2.63;;;2.42;;
24635;SDS011;12772;49.794;10.024;2023-07-22T12:05:47;3.63;;;2.33;;
24635;SDS011;12772;49.794;10.024;2023-07-22T12:09:50;2.53;;;2.33;;
24635;SDS011;12772;49.794;10.024;2023-07-22T12:14:12;4.82;;;2.47;;
24635;SDS011;12772;49.794;10.024;2023-07-22T12:18:14;2.70;;;2.22;;
24635;SDS011;12772;49.794;10.024;2023-07-22T12:22:16;2.95;;;2.35;;
24635;SDS011;12772;49.794;10.024;2023-07-22T12:26:18;2.50;;;2.30;;
24635;SDS011;12772;49.794;10.024;2023-07-22T12:30:20;5.38;;;1.95;;
24635;SDS011;12772;49.794;10.024;2023-07-22T12:34:24;2.30;;;2.10;;
24635;SDS011;12772;49.794;10.024;2023-07-22T12:38:26;2.35;;;1.98;;
24635;SDS011;12772;49.794;10.024;2023-07-22T12:42:28;2.17;;;1.98;;
24635;SDS011;12772;49.794;10.024;2023-07-22T12:46:30;1.83;;;1.73;;
24635;SDS011;12772;49.794;10.024;2023-07-22T12:50:32;2.63;;;2.22;;
24635;SDS011;12772;49.794;10.024;2023-07-22T12:54:35;2.20;;;2.10;;
24635;SDS011;12772;49.794;10.024;2023-07-22T12:58:37;2.15;;;2.05;;
24635;SDS011;12772;49.794;10.024;2023-07-22T13:02:39;2.78;;;2.17;;
24635;SDS011;12772;49.794;10.024;2023-07-22T13:06:41;1.90;;;1.80;;
24635;SDS011;12772;49.794;10.024;2023-07-22T13:10:43;2.28;;;2.13;;
24635;SDS011;12772;49.794;10.024;2023-07-22T13:14:47;3.08;;;2.05;;
24635;SDS011;12772;49.794;10.024;2023-07-22T13:18:49;4.43;;;2.10;;
24635;SDS011;12772;49.794;10.024;2023-07-22T13:22:51;2.40;;;2.20;;
24635;SDS011;12772;49.794;10.024;2023-07-22T13:26:53;2.53;;;1.98;;
24635;SDS011;12772;49.794;10.024;2023-07-22T13:30:55;4.85;;;2.20;;
24635;SDS011;12772;49.794;10.024;2023-07-22T13:34:57;3.78;;;3.13;;
24635;SDS011;12772;49.794;10.024;2023-07-22T13:38:59;2.55;;;1.75;;
24635;SDS011;12772;49.794;10.024;2023-07-22T13:43:01;3.22;;;2.17;;
24635;SDS011;12772;49.794;10.024;2023-07-22T13:47:04;2.63;;;2.42;;
24635;SDS011;12772;49.794;10.024;2023-07-22T13:51:06;2.25;;;2.13;;
24635;SDS011;12772;49.794;10.024;2023-07-22T13:55:08;3.22;;;2.00;;
24635;SDS011;12772;49.794;10.024;2023-07-22T13:59:10;2.58;;;2.17;;
24635;SDS011;12772;49.794;10.024;2023-07-22T14:03:12;2.30;;;2.10;;
24635;SDS011;12772;49.794;10.024;2023-07-22T14:07:14;2.10;;;1.90;;
24635;SDS011;12772;49.794;10.024;2023-07-22T14:11:16;3.75;;;1.70;;
24635;SDS011;12772;49.794;10.024;2023-07-22T14:15:18;2.20;;;2.00;;
24635;SDS011;12772;49.794;10.024;2023-07-22T14:19:21;3.95;;;2.13;;
24635;SDS011;12772;49.794;10.024;2023-07-22T14:23:24;3.20;;;2.08;;
24635;SDS011;12772;49.794;10.024;2023-07-22T14:27:26;4.28;;;1.92;;
24635;SDS011;12772;49.794;10.024;2023-07-22T14:31:30;4.30;;;1.77;;
24635;SDS011;12772;49.794;10.024;2023-07-22T14:35:33;2.17;;;1.98;;
24635;SDS011;12772;49.794;10.024;2023-07-22T14:39:35;2.20;;;2.00;;
24635;SDS011;12772;49.794;10.024;2023-07-22T14:43:37;2.42;;;2.20;;
24635;SDS011;12772;49.794;10.024;2023-07-22T14:47:39;2.30;;;2.20;;
24635;SDS011;12772;49.794;10.024;2023-07-22T14:51:41;2.58;;;2.10;;
24635;SDS011;12772;49.794;10.024;2023-07-22T14:55:43;2.15;;;1.90;;
24635;SDS011;12772;49.794;10.024;2023-07-22T14:59:45;2.47;;;2.05;;
24635;SDS011;12772;49.794;10.024;2023-07-22T15:03:49;3.38;;;2.33;;
24635;SDS011;12772;49.794;10.024;2023-07-22T15:07:51;2.00;;;1.90;;
24635;SDS011;12772;49.794;10.024;2023-07-22T15:11:52;3.45;;;2.20;;
24635;SDS011;12772;49.794;10.024;2023-07-22T15:15:55;4.80;;;2.10;;
24635;SDS011;12772;49.794;10.024;2023-07-22T15:19:57;2.47;;;2.15;;
24635;SDS011;12772;49.794;10.024;2023-07-22T15:23:59;5.10;;;2.53;;
24635;SDS011;12772;49.794;10.024;2023-07-22T15:28:02;2.47;;;2.28;;
24635;SDS011;12772;49.794;10.024;2023-07-22T15:32:04;5.47;;;2.30;;
24635;SDS011;12772;49.794;10.024;2023-07-22T15:36:06;3.63;;;2.00;;
24635;SDS011;12772;49.794;10.024;2023-07-22T15:40:09;2.28;;;2.05;;
24635;SDS011;12772;49.794;10.024;2023-07-22T15:44:12;2.28;;;2.00;;
24635;SDS011;12772;49.794;10.024;2023-07-22T15:48:14;3.60;;;2.17;;
24635;SDS011;12772;49.794;10.024;2023-07-22T15:52:16;4.10;;;2.47;;
24635;SDS011;12772;49.794;10.024;2023-07-22T15:56:18;4.38;;;1.98;;
24635;SDS011;12772;49.794;10.024;2023-07-22T16:00:20;3.15;;;2.03;;
24635;SDS011;12772;49.794;10.024;2023-07-22T16:04:22;2.50;;;2.30;;
24635;SDS011;12772;49.794;10.024;2023-07-22T16:08:25;2.75;;;2.00;;
24635;SDS011;12772;49.794;10.024;2023-07-22T16:12:27;2.60;;;2.40;;
24635;SDS011;12772;49.794;10.024;2023-07-22T16:16:29;2.58;;;2.38;;
24635;SDS011;12772;49.794;10.024;2023-07-22T16:20:31;2.45;;;2.30;;
24635;SDS011;12772;49.794;10.024;2023-07-22T16:24:33;3.80;;;2.55;;
24635;SDS011;12772;49.794;10.024;2023-07-22T16:28:35;2.50;;;2.30;;
24635;SDS011;12772;49.794;10.024;2023-07-22T16:32:37;2.58;;;2.38;;
24635;SDS011;12772;49.794;10.024;2023-07-22T16:36:39;2.55;;;2.00;;
24635;SDS011;12772;49.794;10.024;2023-07-22T16:40:41;2.50;;;2.25;;
24635;SDS011;12772;49.794;10.024;2023-07-22T16:44:43;2.67;;;2.30;;
24635;SDS011;12772;49.794;10.024;2023-07-22T16:48:46;2.65;;;2.45;;
24635;SDS011;12772;49.794;10.024;2023-07-22T16:52:49;3.25;;;2.38;;
24635;SDS011;12772;49.794;10.024;2023-07-22T16:56:51;4.68;;;4.30;;
24635;SDS011;12772;49.794;10.024;2023-07-22T17:00:53;3.47;;;3.17;;
24635;SDS011;12772;49.794;10.024;2023-07-22T17:04:55;5.72;;;4.95;;
24635;SDS011;12772;49.794;10.024;2023-07-22T17:08:57;6.00;;;3.80;;
24635;SDS011;12772;49.794;10.024;2023-07-22T17:12:59;5.22;;;3.20;;
24635;SDS011;12772;49.794;10.024;2023-07-22T17:17:01;5.70;;;3.65;;
24635;SDS011;12772;49.794;10.024;2023-07-22T17:21:04;4.57;;;2.85;;
24635;SDS011;12772;49.794;10.024;2023-07-22T17:25:06;3.13;;;2.78;;
24635;SDS011;12772;49.794;10.024;2023-07-22T17:29:08;3.05;;;2.80;;
24635;SDS011;12772;49.794;10.024;2023-07-22T17:33:10;3.08;;;2.78;;
24635;SDS011;12772;49.794;10.024;2023-07-22T17:37:12;5.75;;;3.22;;
24635;SDS011;12772;49.794;10.024;2023-07-22T17:41:14;3.15;;;2.70;;
24635;SDS011;12772;49.794;10.024;2023-07-22T17:45:16;4.30;;;2.53;;
24635;SDS011;12772;49.794;10.024;2023-07-22T17:49:18;2.83;;;2.63;;
24635;SDS011;12772;49.794;10.024;2023-07-22T17:53:20;3.58;;;3.00;;
24635;SDS011;12772;49.794;10.024;2023-07-22T17:57:22;5.10;;;3.25;;
24635;SDS011;12772;49.794;10.024;2023-07-22T18:01:24;4.90;;;2.85;;
24635;SDS011;12772;49.794;10.024;2023-07-22T18:05:27;3.05;;;2.67;;
24635;SDS011;12772;49.794;10.024;2023-07-22T18:09:30;3.50;;;3.20;;
24635;SDS011;12772;49.794;10.024;2023-07-22T18:13:32;3.15;;;2.88;;
24635;SDS011;12772;49.794;10.024;2023-07-22T18:17:35;2.72;;;2.53;;
24635;SDS011;12772;49.794;10.024;2023-07-22T18:21:37;3.60;;;2.35;;
24635;SDS011;12772;49.794;10.024;2023-07-22T18:25:39;4.93;;;2.60;;
24635;SDS011;12772;49.794;10.024;2023-07-22T18:29:41;3.30;;;2.72;;
24635;SDS011;12772;49.794;10.024;2023-07-22T18:33:43;4.07;;;2.67;;
24635;SDS011;12772;49.794;10.024;2023-07-22T18:37:45;3.03;;;2.78;;
24635;SDS011;12772;49.794;10.024;2023-07-22T18:41:47;3.20;;;3.00;;
24635;SDS011;12772;49.794;10.024;2023-07-22T18:45:49;3.30;;;3.03;;
24635;SDS011;12772;49.794;10.024;2023-07-22T18:49:51;4.47;;;2.70;;
24635;SDS011;12772;49.794;10.024;2023-07-22T18:53:54;3.75;;;2.90;;
24635;SDS011;12772;49.794;10.024;2023-07-22T18:57:56;4.18;;;3.03;;
24635;SDS011;12772;49.794;10.024;2023-07-22T19:01:58;3.35;;;3.03;;
24635;SDS011;12772;49.794;10.024;2023-07-22T19:06:00;3.60;;;3.10;;
24635;SDS011;12772;49.794;10.024;2023-07-22T19:10:03;3.33;;;2.75;;
24635;SDS011;12772;49.794;10.024;2023-07-22T19:14:05;3.10;;;2.90;;
24635;SDS011;12772;49.794;10.024;2023-07-22T19:18:07;3.33;;;3.03;;
24635;SDS011;12772;49.794;10.024;2023-07-22T19:22:09;2.70;;;2.50;;
24635;SDS011;12772;49.794;10.024;2023-07-22T19:26:11;3.30;;;2.97;;
24635;SDS011;12772;49.794;10.024;2023-07-22T19:30:13;4.47;;;2.88;;
24635;SDS011;12772;49.794;10.024;2023-07-22T19:34:15;3.45;;;3.15;;
24635;SDS011;12772;49.794;10.024;2023-07-22T19:38:17;3.17;;;2.92;;
24635;SDS011;12772;49.794;10.024;2023-07-22T19:42:19;2.85;;;2.65;;
24635;SDS011;12772;49.794;10.024;2023-07-22T19:46:22;3.60;;;3.30;;
24635;SDS011;12772;49.794;10.024;2023-07-22T19:50:24;3.00;;;2.80;;
24635;SDS011;12772;49.794;10.024;2023-07-22T19:54:26;3.78;;;2.60;;
24635;SDS011;12772;49.794;10.024;2023-07-22T19:58:29;3.50;;;2.88;;
24635;SDS011;12772;49.794;10.024;2023-07-22T20:02:31;3.30;;;3.00;;
24635;SDS011;12772;49.794;10.024;2023-07-22T20:06:33;4.03;;;2.70;;
24635;SDS011;12772;49.794;10.024;2023-07-22T20:10:38;4.50;;;2.90;;
24635;SDS011;12772;49.794;10.024;2023-07-22T20:14:41;3.95;;;2.83;;
24635;SDS011;12772;49.794;10.024;2023-07-22T20:18:43;3.05;;;2.78;;
24635;SDS011;12772;49.794;10.024;2023-07-22T20:22:45;5.35;;;2.92;;
24635;SDS011;12772;49.794;10.024;2023-07-22T20:26:47;3.50;;;3.20;;
24635;SDS011;12772;49.794;10.024;2023-07-22T20:30:49;4.85;;;3.28;;
24635;SDS011;12772;49.794;10.024;2023-07-22T20:34:51;3.75;;;3.28;;
24635;SDS011;12772;49.794;10.024;2023-07-22T20:38:53;4.13;;;3.15;;
24635;SDS011;12772;49.794;10.024;2023-07-22T20:42:55;3.70;;;3.35;;
24635;SDS011;12772;49.794;10.024;2023-07-22T20:46:57;3.58;;;3.28;;
24635;SDS011;12772;49.794;10.024;2023-07-22T20:51:03;4.15;;;3.15;;
24635;SDS011;12772;49.794;10.024;2023-07-22T20:55:06;7.65;;;3.70;;
24635;SDS011;12772;49.794;10.024;2023-07-22T20:59:08;4.63;;;3.10;;
24635;SDS011;12772;49.794;10.024;2023-07-22T21:03:10;3.85;;;3.30;;
24635;SDS011;12772;49.794;10.024;2023-07-22T21:07:12;3.97;;;3.47;;
24635;SDS011;12772;49.794;10.024;2023-07-22T21:11:15;8.35;;;3.20;;
24635;SDS011;12772;49.794;10.024;2023-07-22T21:15:17;8.90;;;4.00;;
24635;SDS011;12772;49.794;10.024;2023-07-22T21:19:19;5.20;;;4.18;;
24635;SDS011;12772;49.794;10.024;2023-07-22T21:23:21;6.85;;;3.80;;
24635;SDS011;12772;49.794;10.024;2023-07-22T21:27:23;6.10;;;3.92;;
24635;SDS011;12772;49.794;10.024;2023-07-22T21:31:25;8.10;;;4.13;;
24635;SDS011;12772;49.794;10.024;2023-07-22T21:35:27;13.00;;;4.20;;
24635;SDS011;12772;49.794;10.024;2023-07-22T21:39:35;6.65;;;4.15;;
24635;SDS011;12772;49.794;10.024;2023-07-22T21:43:37;6.35;;;3.92;;
24635;SDS011;12772;49.794;10.024;2023-07-22T21:47:39;5.63;;;3.75;;
24635;SDS011;12772;49.794;10.024;2023-07-22T21:51:41;4.25;;;3.38;;
24635;SDS011;12772;49.794;10.024;2023-07-22T21:55:45;5.32;;;3.30;;
24635;SDS011;12772;49.794;10.024;2023-07-22T21:59:47;4.40;;;3.15;;
24635;SDS011;12772;49.794;10.024;2023-07-22T22:03:49;5.35;;;3.60;;
24635;SDS011;12772;49.794;10.024;2023-07-22T22:07:51;4.05;;;2.70;;
24635;SDS011;12772;49.794;10.024;2023-07-22T22:11:53;3.38;;;2.78;;
24635;SDS011;12772;49.794;10.024;2023-07-22T22:15:55;6.38;;;2.92;;
24635;SDS011;12772;49.794;10.024;2023-07-22T22:19:57;6.07;;;3.05;;
24635;SDS011;12772;49.794;10.024;2023-07-22T22:23:59;4.20;;;3.10;;
24635;SDS011;12772;49.794;10.024;2023-07-22T22:28:01;6.20;;;3.15;;
24635;SDS011;12772;49.794;10.024;2023-07-22T22:32:04;7.90;;;2.80;;
24635;SDS011;12772;49.794;10.024;2023-07-22T22:36:06;3.05;;;2.65;;
24635;SDS011;12772;49.794;10.024;2023-07-22T22:40:08;5.43;;;3.17;;
24635;SDS011;12772;49.794;10.024;2023-07-22T22:44:10;4.38;;;2.80;;
24635;SDS011;12772;49.794;10.024;2023-07-22T22:48:12;3.50;;;3.20;;
24635;SDS011;12772;49.794;10.024;2023-07-22T22:52:14;4.88;;;3.25;;
24635;SDS011;12772;49.794;10.024;2023-07-22T22:56:16;5.35;;;3.70;;
24635;SDS011;12772;49.794;10.024;2023-07-22T23:00:19;3.65;;;3.25;;
24635;SDS011;12772;49.794;10.024;2023-07-22T23:04:21;4.13;;;3.17;;
24635;SDS011;12772;49.794;10.024;2023-07-22T23:08:23;3.25;;;2.90;;
24635;SDS011;12772;49.794;10.024;2023-07-22T23:12:26;3.22;;;2.83;;
24635;SDS011;12772;49.794;10.024;2023-07-22T23:16:29;8.20;;;3.20;;
24635;SDS011;12772;49.794;10.024;2023-07-22T23:20:31;6.90;;;3.83;;
24635;SDS011;12772;49.794;10.024;2023-07-22T23:24:33;12.20;;;4.85;;
24635;SDS011;12772;49.794;10.024;2023-07-22T23:28:35;4.50;;;3.97;;
24635;SDS011;12772;49.794;10.024;2023-07-22T23:32:37;4.80;;;3.92;;
24635;SDS011;12772;49.794;10.024;2023-07-22T23:36:39;4.30;;;3.90;;
24635;SDS011;12772;49.794;10.024;2023-07-22T23:40:41;4.55;;;3.85;;
24635;SDS011;12772;49.794;10.024;2023-07-22T23:44:43;7.03;;;3.78;;
24635;SDS011;12772;49.794;10.024;2023-07-22T23:48:45;4.85;;;3.35;;
24635;SDS011;12772;49.794;10.024;2023-07-22T23:52:47;5.20;;;3.90;;
24635;SDS011;12772;49.794;10.024;2023-07-22T23:56:49;4.63;;;3.20;;
